• Join FlightAware (Why Join?)
  • Login
  • US Flag 
11:42AM EST


 

Airport Tracker/Info


-or-


 

Live Flight TrackerFlight Track Log ✈ OPT732 ✈ 10-May-2013 ✈ KCGF - KJZI

Flight Track Log - Related Links

Times and Time Zones

All times are in EDT time to prevent confusion due to time zone crossing. See the OPT732 flight status page for this flight to view local times or setup timezone preferences in your user account.

Time Position Orientation Groundspeed Altitude Reporting Facility
EDT Latitude Longitude Course Direction KTS MPH feet Rate Location/Type
08:44AM 41.5519 -81.5044 194° South 168 193 2,000  Level Cleveland Center
08:44AM 41.5206 -81.5150 194° South 219 252 3,100 1,440 Climbing Cleveland Center
08:45AM 41.4536 -81.5250 186° South 254 292 4,400 1,500 Climbing Cleveland Center
08:46AM 41.4367 -81.5525 231° Southwest 239 275 5,300 3,240 Climbing Cleveland Center
08:47AM 41.3822 -81.6069 217° Southwest 234 269 9,100 3,120 Climbing Cleveland Center
08:48AM 41.3317 -81.6533 215° Southwest 253 291 11,600 2,400 Climbing Cleveland Center
08:49AM 41.2603 -81.7183 214° Southwest 284 327 13,900 2,280 Climbing Cleveland Center
08:50AM 41.1864 -81.7861 215° Southwest 314 361 16,200 2,340 Climbing Cleveland Center
08:51AM 41.0981 -81.8700 216° Southwest 349 402 18,600 2,400 Climbing Cleveland Center
08:52AM 41.0158 -81.9425 214° Southwest 359 413 21,000 2,280 Climbing Cleveland Center
08:54AM 40.8367 -82.0925 212° Southwest 382 440 25,600 2,280 Climbing Cleveland Center
08:55AM 40.7419 -82.1617 209° Southwest 392 451 28,000 2,220 Climbing Cleveland Center
08:56AM 40.6114 -82.2572 209° Southwest 404 465 31,100 2,160 Climbing Indianapolis Center
08:57AM 40.5092 -82.3325 209° Southwest 415 478 33,300 2,280 Climbing Indianapolis Center
08:58AM 40.4039 -82.4067 208° Southwest 424 488 35,800 2,700 Climbing Indianapolis Center
08:59AM 40.3022 -82.4792 209° Southwest 414 476 38,900 2,700 Climbing Indianapolis Center
09:00AM 40.1939 -82.5567 209° Southwest 385 443 41,400 1,440 Climbing Indianapolis Center
09:01AM 40.0789 -82.5792 189° South 426 490 41,900 480 Climbing Indianapolis Center
09:02AM 39.9497 -82.5617 174° South 458 527 42,500 540 Climbing Indianapolis Center
09:03AM 39.8164 -82.5428 174° South 471 542 43,100 480 Climbing Indianapolis Center
09:04AM 39.6803 -82.5236 174° South 480 552 43,600 480 Climbing Indianapolis Center
09:05AM 39.5419 -82.5044 174° South 488 562 44,200 480 Climbing Indianapolis Center
09:06AM 39.4028 -82.4861 174° South 494 568 44,700 360 Climbing Indianapolis Center
09:07AM 39.2672 -82.4678 174° South 495 570 45,000 120 Climbing Indianapolis Center
09:08AM 39.1319 -82.4483 174° South 491 565 45,000  Level Indianapolis Center
09:09AM 38.9672 -82.4272 174° South 497 572 45,000  Level Indianapolis Center
09:11AM 38.8286 -82.4083 174° South 501 577 45,000  Level Indianapolis Center
09:12AM 38.6928 -82.3889 174° South 496 571 45,000  Level Indianapolis Center
09:13AM 38.5569 -82.3708 174° South 494 568 45,000  Level Indianapolis Center
09:14AM 38.4208 -82.3533 174° South 493 567 45,000  Level Indianapolis Center
09:15AM 38.2856 -82.3361 174° South 491 565 45,000  Level Indianapolis Center
09:16AM 38.1214 -82.3136 174° South 494 568 45,000  Level Indianapolis Center
09:17AM 37.9886 -82.2992 175° South 489 563 45,000  Level Indianapolis Center
09:18AM 37.8500 -82.2797 174° South 496 571 45,000  Level Indianapolis Center
09:19AM 37.7103 -82.2597 174° South 501 577 45,000  Level Indianapolis Center
09:20AM 37.5711 -82.2422 174° South 500 575 45,000  Level Indianapolis Center
09:21AM 37.4328 -82.2269 175° South 497 572 45,000  Level Indianapolis Center
09:21AM 37.3606 -82.2164 173° South 500 575 45,000  Level Atlanta Center
09:22AM 37.2225 -82.2014 175° South 495 570 45,000  Level Atlanta Center
09:23AM 37.0828 -82.1811 173° South 506 582 45,000  Level Atlanta Center
09:24AM 36.9447 -82.1636 174° South 506 582 45,000  Level Atlanta Center
09:25AM 36.8028 -82.1464 174° South 506 582 45,000  Level Atlanta Center
09:26AM 36.6522 -82.1239 173° South 505 581 45,000  Level Atlanta Center
09:27AM 36.5144 -82.1092 175° South 505 581 45,000  Level Atlanta Center
09:28AM 36.3744 -82.0919 174° South 500 575 45,000  Level Atlanta Center
09:29AM 36.2386 -82.0772 175° South 505 581 45,000 -240 Level Atlanta Center
09:30AM 36.1133 -82.0622 174° South 499 574 44,600 -960 Descending Atlanta Center
09:31AM 35.9794 -82.0475 175° South 499 574 43,100 -1,500 Descending Atlanta Center
09:32AM 35.8436 -82.0303 174° South 499 574 41,600 -1,500 Descending Atlanta Center
09:33AM 35.7036 -82.0133 174° South 499 574 40,100 -1,500 Descending Atlanta Center
09:34AM 35.5614 -81.9964 174° South 511 588 38,600 -1,560 Descending Atlanta Center
09:35AM 35.4172 -81.9769 174° South 521 600 37,000 -1,740 Descending Atlanta Center
09:36AM 35.2806 -81.9219 162° South 521 600 35,200 -2,100 Descending Atlanta Center
09:37AM 35.1500 -81.8517 156° South 521 600 32,900 -2,340 Descending Atlanta Center
09:38AM 35.0278 -81.7889 157° South 489 563 30,600 -1,500 Descending Atlanta Center
09:39AM 34.9161 -81.7311 157° South 445 512 30,000 -1,380 Descending Atlanta Center
09:40AM 34.7981 -81.6686 157° South 440 506 27,900 -1,020 Descending Atlanta Center
09:42AM 34.5425 -81.5339 157° South 512 589 27,000 -300 Descending Jacksonville Center
09:43AM 34.4067 -81.5058 170° South 497 572 27,000  Level Jacksonville Center
09:44AM 34.2689 -81.4931 176° South 497 572 27,000 -420 Level Jacksonville Center
09:45AM 34.1289 -81.4803 176° South 503 579 26,200 -1,680 Descending Jacksonville Center
09:46AM 33.9953 -81.4622 174° South 497 572 23,700 -2,700 Descending Jacksonville Center
09:47AM 33.8856 -81.3717 146° Southeast 466 536 20,800 -2,940 Descending Jacksonville Center
09:48AM 33.7906 -81.2658 137° Southeast 466 536 17,900 -2,160 Descending Jacksonville Center
09:49AM 33.6994 -81.1625 137° Southeast 455 524 16,500 -1,260 Descending Jacksonville Center
09:50AM 33.6103 -81.0644 138° Southeast 449 517 15,400 -1,080 Descending Jacksonville Center
09:51AM 33.5211 -80.9667 138° Southeast 438 504 14,400 -1,080 Descending Jacksonville Center
09:52AM 33.4319 -80.8692 138° Southeast 433 498 13,300 -1,080 Descending Jacksonville Center
09:53AM 33.3450 -80.7742 138° Southeast 428 493 12,300 -1,200 Descending Jacksonville Center
09:54AM 33.2558 -80.6869 141° Southeast 423 487 11,000 -960 Descending Jacksonville Center
09:55AM 33.1997 -80.5839 123° Southeast 388 447 10,400 -1,140 Descending Jacksonville Center
09:56AM 33.1483 -80.5108 130° Southeast 340 391 8,800 -1,620 Descending Jacksonville Center
09:57AM 33.0886 -80.4531 141° Southeast 292 336 7,200 -1,800 Descending Jacksonville Center
09:58AM 33.0250 -80.3953 143° Southeast 265 305 5,300 -1,140 Descending Jacksonville Center
09:59AM 32.9656 -80.3472 146° Southeast 260 299 5,000 -180 Descending Jacksonville Center
10:00AM 32.8961 -80.3197 162° South 260 299 5,000 -540 Level Jacksonville Center
10:01AM 32.8267 -80.2919 161° South 260 299 4,000 -1,500 Descending Jacksonville Center
10:02AM 32.7878 -80.2239 124° Southeast 240 276 2,100 -1,920 Descending Jacksonville Center
10:04AM 32.7291 -80.0745 132° Southeast  Level Estimated
10:11AM 32.7000 -80.0000 132° Southeast  Level FlightAware Approximate
10:12AM 32.7010 -80.0033 132° Southeast  Level Estimated